createdAt,value
2018-06-16T00:04:20.399Z,10.27
2018-06-16T00:09:07.470Z,11.03
2018-06-16T00:13:51.878Z,11.07
2018-06-16T00:18:36.253Z,9.63
2018-06-16T00:23:20.728Z,10.00
2018-06-16T00:28:05.131Z,10.40
2018-06-16T00:32:49.476Z,9.30
2018-06-16T00:37:33.923Z,10.13
2018-06-16T00:42:18.472Z,9.07
2018-06-16T00:47:02.815Z,9.43
2018-06-16T00:51:47.349Z,9.63
2018-06-16T00:56:31.759Z,8.73
2018-06-16T01:01:16.243Z,9.70
2018-06-16T01:06:00.770Z,9.50
2018-06-16T01:10:45.143Z,9.53
2018-06-16T01:15:29.594Z,9.23
2018-06-16T01:20:13.942Z,10.13
2018-06-16T01:24:58.402Z,10.03
2018-06-16T01:29:43.028Z,9.80
2018-06-16T01:34:27.427Z,11.23
2018-06-16T01:39:12.822Z,9.50
2018-06-16T01:43:57.156Z,9.37
2018-06-16T01:48:41.628Z,10.73
2018-06-16T01:53:26.015Z,9.80
2018-06-16T01:58:10.438Z,11.03
2018-06-16T02:02:55.121Z,10.03
2018-06-16T02:07:39.787Z,10.83
2018-06-16T02:12:24.271Z,10.47
2018-06-16T02:17:08.631Z,10.57
2018-06-16T02:21:53.015Z,10.67
2018-06-16T02:26:37.520Z,11.63
2018-06-16T02:31:21.955Z,11.27
2018-06-16T02:36:06.997Z,11.30
2018-06-16T02:40:51.661Z,10.60
2018-06-16T02:45:36.042Z,10.77
2018-06-16T02:50:20.696Z,9.37
2018-06-16T02:55:05.456Z,10.03
2018-06-16T02:59:49.865Z,10.93
2018-06-16T03:04:34.238Z,10.47
2018-06-16T03:09:18.696Z,10.63
2018-06-16T03:14:03.377Z,10.13
2018-06-16T03:18:47.782Z,11.80
2018-06-16T03:23:32.792Z,11.53
2018-06-16T03:28:17.155Z,11.33
2018-06-16T03:33:01.499Z,9.97
2018-06-16T03:37:45.830Z,10.60
2018-06-16T03:42:30.379Z,9.53
2018-06-16T03:47:14.799Z,10.07
2018-06-16T03:51:59.142Z,9.50
2018-06-16T03:56:43.536Z,9.93
2018-06-16T04:01:28.263Z,9.93
2018-06-16T04:06:12.865Z,8.80
2018-06-16T04:10:57.395Z,8.17
2018-06-16T04:15:41.894Z,9.33
2018-06-16T04:20:26.296Z,9.60
2018-06-16T04:25:10.629Z,9.27
2018-06-16T04:29:54.991Z,8.10
2018-06-16T04:34:39.461Z,9.10
2018-06-16T04:39:23.966Z,9.00
2018-06-16T04:44:08.374Z,10.97
2018-06-16T04:48:52.996Z,11.53
2018-06-16T04:53:37.721Z,14.20
2018-06-16T04:58:22.190Z,12.67
2018-06-16T05:03:07.019Z,13.80
2018-06-16T05:07:51.421Z,12.93
2018-06-16T05:12:35.795Z,14.63
2018-06-16T05:17:20.210Z,16.30
2018-06-16T05:22:04.787Z,12.90
2018-06-16T05:26:49.233Z,13.83
2018-06-16T05:31:33.856Z,13.50
2018-06-16T05:36:18.619Z,13.53
2018-06-16T05:41:03.055Z,12.93
2018-06-16T05:45:47.564Z,13.60
2018-06-16T05:50:32.002Z,12.17
2018-06-16T05:55:22.901Z,12.67
2018-06-16T06:00:07.512Z,14.10
2018-06-16T06:04:52.692Z,13.20
2018-06-16T06:09:37.160Z,12.93
2018-06-16T06:14:21.721Z,13.83
2018-06-16T06:19:06.260Z,12.73
2018-06-16T06:23:50.731Z,12.20
2018-06-16T06:28:35.116Z,12.17
2018-06-16T06:33:19.819Z,12.30
2018-06-16T06:38:04.444Z,11.43
2018-06-16T06:42:49.298Z,11.97
2018-06-16T06:47:38.450Z,11.23
2018-06-16T06:52:39.338Z,11.00
2018-06-16T06:57:26.300Z,10.27
2018-06-16T07:02:14.789Z,9.83
2018-06-16T07:07:00.820Z,9.87
2018-06-16T07:11:51.568Z,9.93
2018-06-16T07:16:36.179Z,9.47
2018-06-16T07:21:20.602Z,8.40
2018-06-16T07:26:05.268Z,8.03
2018-06-16T07:30:49.687Z,8.23
2018-06-16T07:35:34.119Z,7.70
2018-06-16T07:40:18.574Z,8.33
2018-06-16T07:45:02.883Z,7.57
2018-06-16T07:49:47.262Z,7.83
2018-06-16T07:54:31.655Z,8.27
2018-06-16T07:59:17.307Z,6.33
2018-06-16T08:04:01.708Z,7.33
2018-06-16T08:08:46.255Z,7.10
2018-06-16T08:13:30.735Z,8.23
2018-06-16T08:18:15.172Z,7.50
2018-06-16T08:22:59.522Z,7.17
2018-06-16T08:27:44.121Z,7.62
2018-06-16T08:32:28.650Z,5.80
2018-06-16T08:37:13.080Z,7.07
2018-06-16T08:41:57.505Z,6.77
2018-06-16T08:46:41.903Z,7.53
2018-06-16T08:51:26.366Z,6.92
2018-06-16T08:56:10.794Z,6.05
2018-06-16T09:00:55.170Z,6.28
2018-06-16T09:05:40.570Z,7.37
2018-06-16T09:10:25.056Z,7.50
2018-06-16T09:15:09.499Z,6.55
2018-06-16T09:19:54.193Z,6.65
2018-06-16T09:24:38.606Z,4.70
2018-06-16T09:29:23.062Z,5.53
2018-06-16T09:34:08.366Z,5.72
2018-06-16T09:38:52.886Z,5.80
2018-06-16T09:43:38.352Z,5.42
2018-06-16T09:48:22.744Z,5.50
2018-06-16T09:53:07.364Z,4.25
2018-06-16T09:57:51.784Z,4.33
2018-06-16T10:02:36.320Z,4.55
2018-06-16T10:07:20.850Z,4.30
2018-06-16T10:12:05.401Z,4.83
2018-06-16T10:16:49.950Z,4.17
2018-06-16T10:21:34.452Z,4.90
2018-06-16T10:26:18.994Z,4.40
2018-06-16T10:31:03.436Z,4.87
2018-06-16T10:35:47.863Z,4.80
2018-06-16T10:40:32.262Z,4.17
2018-06-16T10:45:16.720Z,5.10
2018-06-16T10:50:01.114Z,4.58
2018-06-16T10:54:45.586Z,4.40
2018-06-16T10:59:30.166Z,4.20
2018-06-16T11:04:14.839Z,4.25
2018-06-16T11:08:59.170Z,4.08
2018-06-16T11:13:43.780Z,4.20
2018-06-16T11:18:28.335Z,4.22
2018-06-16T11:23:13.044Z,4.50
2018-06-16T11:27:58.618Z,3.58
2018-06-16T11:32:43.194Z,4.35
2018-06-16T11:37:27.799Z,4.28
2018-06-16T11:42:12.269Z,4.53
2018-06-16T11:46:56.713Z,4.25
2018-06-16T11:51:41.376Z,3.60
2018-06-16T11:56:25.781Z,3.90
2018-06-16T12:01:11.178Z,4.37
2018-06-16T12:05:55.984Z,4.47
2018-06-16T12:10:40.563Z,4.40
2018-06-16T12:15:25.841Z,4.67
2018-06-16T12:20:10.331Z,4.10
2018-06-16T12:24:54.753Z,4.20
2018-06-16T12:29:40.945Z,3.80
2018-06-16T12:34:25.308Z,4.13
2018-06-16T12:39:10.835Z,3.77
2018-06-16T12:43:55.452Z,3.73
2018-06-16T12:48:39.830Z,4.03
2018-06-16T12:53:24.804Z,4.00
2018-06-16T12:58:09.122Z,3.95
2018-06-16T13:02:53.705Z,3.40
2018-06-16T13:07:38.432Z,3.42
2018-06-16T13:12:23.053Z,3.37
2018-06-16T13:17:07.722Z,3.58
2018-06-16T13:21:52.270Z,3.05
2018-06-16T13:26:36.868Z,3.30
2018-06-16T13:31:21.531Z,3.50
2018-06-16T13:36:05.939Z,2.98
2018-06-16T13:40:50.645Z,3.10
2018-06-16T13:45:35.189Z,3.00
2018-06-16T13:50:19.544Z,3.27
2018-06-16T13:55:03.926Z,3.58
2018-06-16T13:59:48.370Z,3.42
2018-06-16T14:04:32.872Z,4.20
2018-06-16T14:09:17.276Z,4.03
2018-06-16T14:14:01.722Z,4.22
2018-06-16T14:18:46.339Z,4.10
2018-06-16T14:23:30.970Z,4.10
2018-06-16T14:28:15.291Z,3.80
2018-06-16T14:32:59.698Z,3.85
2018-06-16T14:37:44.199Z,3.72
2018-06-16T14:42:28.539Z,3.80
2018-06-16T14:47:12.904Z,3.40
2018-06-16T14:51:57.330Z,3.75
2018-06-16T14:56:41.704Z,3.98
2018-06-16T15:01:26.122Z,3.65
2018-06-16T15:06:10.533Z,3.72
2018-06-16T15:10:55.386Z,3.80
2018-06-16T15:15:40.046Z,3.60
2018-06-16T15:20:24.410Z,3.20
2018-06-16T15:25:08.772Z,3.70
2018-06-16T15:29:53.242Z,4.20
2018-06-16T15:34:37.723Z,4.05
2018-06-16T15:39:22.129Z,4.05
2018-06-16T15:44:06.699Z,3.70
2018-06-16T15:48:51.028Z,3.58
2018-06-16T15:53:35.588Z,3.75
2018-06-16T15:58:20.046Z,3.42
2018-06-16T16:03:04.385Z,3.55
2018-06-16T16:07:49.674Z,3.50
2018-06-16T16:12:34.249Z,3.50
2018-06-16T16:17:18.702Z,3.77
2018-06-16T16:22:03.250Z,3.60
2018-06-16T16:26:47.662Z,4.25
2018-06-16T16:31:32.144Z,4.03
2018-06-16T16:36:16.599Z,4.08
2018-06-16T16:41:01.118Z,3.53
2018-06-16T16:45:45.656Z,4.00
2018-06-16T16:50:30.149Z,4.83
2018-06-16T16:55:14.510Z,4.42
2018-06-16T16:59:58.939Z,3.67
2018-06-16T17:04:43.365Z,3.98
2018-06-16T17:09:28.535Z,4.25
2018-06-16T17:14:13.028Z,4.70
2018-06-16T17:18:57.626Z,4.43
2018-06-16T17:23:42.004Z,4.53
2018-06-16T17:28:26.359Z,4.27
2018-06-16T17:33:10.754Z,4.30
2018-06-16T17:37:55.238Z,4.40
2018-06-16T17:42:39.690Z,4.33
2018-06-16T17:47:24.391Z,4.00
2018-06-16T17:52:08.849Z,3.93
2018-06-16T17:56:53.263Z,4.57
2018-06-16T18:01:37.735Z,5.27
2018-06-16T18:06:22.116Z,7.50
2018-06-16T18:11:06.680Z,7.07
2018-06-16T18:15:51.182Z,5.20
2018-06-16T18:20:35.363Z,4.90
2018-06-16T18:25:20.275Z,5.40
2018-06-16T18:30:04.787Z,5.20
2018-06-16T18:34:49.342Z,5.93
2018-06-16T18:39:33.735Z,5.10
2018-06-16T18:44:18.236Z,6.20
2018-06-16T18:49:02.883Z,6.33
2018-06-16T18:53:47.395Z,6.43
2018-06-16T18:58:31.818Z,6.10
2018-06-16T19:03:16.225Z,6.30
2018-06-16T19:08:00.758Z,6.50
2018-06-16T19:12:46.202Z,6.20
2018-06-16T19:17:30.689Z,5.73
2018-06-16T19:22:15.264Z,5.80
2018-06-16T19:26:59.816Z,6.37
2018-06-16T19:31:44.410Z,6.70
2018-06-16T19:36:29.022Z,7.37
2018-06-16T19:41:13.585Z,8.03
2018-06-16T19:45:58.089Z,7.23
2018-06-16T19:50:42.726Z,7.07
2018-06-16T19:55:27.617Z,7.83
2018-06-16T20:00:12.193Z,8.30
2018-06-16T20:04:57.039Z,7.47
2018-06-16T20:09:41.659Z,8.03
2018-06-16T20:14:26.119Z,8.00
2018-06-16T20:19:10.735Z,8.27
2018-06-16T20:23:55.268Z,7.93
2018-06-16T20:28:39.699Z,8.63
2018-06-16T20:33:24.156Z,7.97
2018-06-16T20:38:08.576Z,8.53
2018-06-16T20:42:53.072Z,8.33
2018-06-16T20:47:37.881Z,8.70
2018-06-16T20:52:22.585Z,8.20
2018-06-16T20:57:06.788Z,7.73
2018-06-16T21:01:51.067Z,8.40
2018-06-16T21:06:35.494Z,8.47
2018-06-16T21:11:20.046Z,7.93
2018-06-16T21:16:04.474Z,8.00
2018-06-16T21:20:48.866Z,8.47
2018-06-16T21:25:33.402Z,9.03
2018-06-16T21:30:17.847Z,8.57
2018-06-16T21:35:02.430Z,9.17
2018-06-16T21:39:46.762Z,8.70
2018-06-16T21:44:31.222Z,9.07
2018-06-16T21:49:15.646Z,8.60
2018-06-16T21:54:00.111Z,8.30
2018-06-16T21:58:44.654Z,8.80
2018-06-16T22:03:29.137Z,8.10
2018-06-16T22:08:18.650Z,7.87
2018-06-16T22:13:03.069Z,8.57
2018-06-16T22:17:47.919Z,8.30
2018-06-16T22:22:32.321Z,8.00
2018-06-16T22:27:16.815Z,8.37
2018-06-16T22:32:01.222Z,7.73
2018-06-16T22:36:45.594Z,7.37
2018-06-16T22:41:29.967Z,7.50
2018-06-16T22:46:14.506Z,6.97
2018-06-16T22:50:58.494Z,7.17
2018-06-16T22:55:42.807Z,7.07
2018-06-16T23:00:28.890Z,6.10
2018-06-16T23:05:13.355Z,7.13
2018-06-16T23:09:57.884Z,7.47
2018-06-16T23:14:43.118Z,7.03
2018-06-16T23:19:27.458Z,6.50
2018-06-16T23:24:12.880Z,6.47
2018-06-16T23:28:57.588Z,6.73
2018-06-16T23:33:42.015Z,6.77
2018-06-16T23:38:26.887Z,6.63
2018-06-16T23:43:11.198Z,7.33
2018-06-16T23:47:55.716Z,7.20
2018-06-16T23:52:40.121Z,7.10
2018-06-16T23:57:24.548Z,7.37
